In Rescue
 
Open Full Screen Window  High Contrast Mode
Wind Gusting 14 knots
10
November 19, 2019 10:59 AM CST
Weather Information
Wind Direction
  320 °
Wind Speed
  10 kt (12 mph)
Wind Gust
  14 kt (16 mph)
Altimeter
29.82 in
Visibility
10 SM
Temperature
05° C
41° F
Dewpoint
02° C
36° F
Humidity
81%
1hr Rain Fall
00.00 in.
24hr Rain Fall
00.02 in.
Sky Condition
Broken @ 4,300 ft
VFR

METAR KOVL 191659Z AUTO 32010G14KT 10SM BKN043 05/02 A2982 RMK AO2

FAA Disclaimer: The data displayed is for advisory purposes only and is not to be used for flight planning or operations.